sensor_id;sensor_type;location;lat;lon;timestamp;P1;durP1;ratioP1;P2;durP2;ratioP2
21128;SDS011;10722;51.910;8.352;2024-01-11T00:01:54;74.33;;;35.83;;
21128;SDS011;10722;51.910;8.352;2024-01-11T00:04:39;80.37;;;36.20;;
21128;SDS011;10722;51.910;8.352;2024-01-11T00:07:24;84.33;;;37.77;;
21128;SDS011;10722;51.910;8.352;2024-01-11T00:10:09;82.40;;;36.30;;
21128;SDS011;10722;51.910;8.352;2024-01-11T00:12:54;77.37;;;36.00;;
21128;SDS011;10722;51.910;8.352;2024-01-11T00:15:39;78.87;;;35.93;;
21128;SDS011;10722;51.910;8.352;2024-01-11T00:18:24;73.80;;;35.33;;
21128;SDS011;10722;51.910;8.352;2024-01-11T00:21:09;74.33;;;35.60;;
21128;SDS011;10722;51.910;8.352;2024-01-11T00:23:55;77.30;;;35.17;;
21128;SDS011;10722;51.910;8.352;2024-01-11T00:26:40;78.20;;;36.03;;
21128;SDS011;10722;51.910;8.352;2024-01-11T00:29:24;82.20;;;36.30;;
21128;SDS011;10722;51.910;8.352;2024-01-11T00:32:09;74.33;;;35.63;;
21128;SDS011;10722;51.910;8.352;2024-01-11T00:34:54;74.97;;;35.60;;
21128;SDS011;10722;51.910;8.352;2024-01-11T00:37:39;74.73;;;35.43;;
21128;SDS011;10722;51.910;8.352;2024-01-11T00:40:24;74.20;;;34.47;;
21128;SDS011;10722;51.910;8.352;2024-01-11T00:43:09;76.53;;;35.43;;
21128;SDS011;10722;51.910;8.352;2024-01-11T00:45:54;81.13;;;36.53;;
21128;SDS011;10722;51.910;8.352;2024-01-11T00:48:39;79.50;;;35.97;;
21128;SDS011;10722;51.910;8.352;2024-01-11T00:51:24;82.90;;;37.50;;
21128;SDS011;10722;51.910;8.352;2024-01-11T00:54:09;78.03;;;35.70;;
21128;SDS011;10722;51.910;8.352;2024-01-11T00:56:54;77.70;;;35.73;;
21128;SDS011;10722;51.910;8.352;2024-01-11T00:59:42;74.43;;;35.90;;
21128;SDS011;10722;51.910;8.352;2024-01-11T01:02:27;75.87;;;36.27;;
21128;SDS011;10722;51.910;8.352;2024-01-11T01:05:12;82.03;;;37.10;;
21128;SDS011;10722;51.910;8.352;2024-01-11T01:07:58;72.53;;;35.13;;
21128;SDS011;10722;51.910;8.352;2024-01-11T01:10:43;76.03;;;36.27;;
21128;SDS011;10722;51.910;8.352;2024-01-11T01:13:27;70.73;;;34.57;;
21128;SDS011;10722;51.910;8.352;2024-01-11T01:16:12;75.57;;;35.53;;
21128;SDS011;10722;51.910;8.352;2024-01-11T01:18:57;78.50;;;35.27;;
21128;SDS011;10722;51.910;8.352;2024-01-11T01:21:43;80.90;;;35.17;;
21128;SDS011;10722;51.910;8.352;2024-01-11T01:24:28;80.30;;;36.83;;
21128;SDS011;10722;51.910;8.352;2024-01-11T01:27:13;74.77;;;35.73;;
21128;SDS011;10722;51.910;8.352;2024-01-11T01:29:57;78.43;;;36.47;;
21128;SDS011;10722;51.910;8.352;2024-01-11T01:32:42;83.50;;;37.33;;
21128;SDS011;10722;51.910;8.352;2024-01-11T01:35:28;79.10;;;37.80;;
21128;SDS011;10722;51.910;8.352;2024-01-11T01:38:13;77.60;;;35.77;;
21128;SDS011;10722;51.910;8.352;2024-01-11T01:40:59;77.20;;;35.20;;
21128;SDS011;10722;51.910;8.352;2024-01-11T01:43:44;78.73;;;36.03;;
21128;SDS011;10722;51.910;8.352;2024-01-11T01:46:29;82.50;;;36.33;;
21128;SDS011;10722;51.910;8.352;2024-01-11T01:49:15;77.10;;;36.23;;
21128;SDS011;10722;51.910;8.352;2024-01-11T01:52:00;82.27;;;37.47;;
21128;SDS011;10722;51.910;8.352;2024-01-11T01:54:45;75.77;;;34.60;;
21128;SDS011;10722;51.910;8.352;2024-01-11T01:57:32;80.83;;;36.17;;
21128;SDS011;10722;51.910;8.352;2024-01-11T02:00:19;77.50;;;36.20;;
21128;SDS011;10722;51.910;8.352;2024-01-11T02:03:05;82.53;;;35.77;;
21128;SDS011;10722;51.910;8.352;2024-01-11T02:05:50;74.73;;;35.57;;
21128;SDS011;10722;51.910;8.352;2024-01-11T02:08:35;76.33;;;36.30;;
21128;SDS011;10722;51.910;8.352;2024-01-11T02:11:21;74.90;;;35.80;;
21128;SDS011;10722;51.910;8.352;2024-01-11T02:14:07;77.27;;;37.07;;
21128;SDS011;10722;51.910;8.352;2024-01-11T02:16:52;79.77;;;36.33;;
21128;SDS011;10722;51.910;8.352;2024-01-11T02:19:38;75.53;;;37.77;;
21128;SDS011;10722;51.910;8.352;2024-01-11T02:22:42;78.17;;;37.37;;
21128;SDS011;10722;51.910;8.352;2024-01-11T02:25:32;76.37;;;37.20;;
21128;SDS011;10722;51.910;8.352;2024-01-11T02:28:17;78.93;;;36.77;;
21128;SDS011;10722;51.910;8.352;2024-01-11T02:31:02;80.33;;;36.77;;
21128;SDS011;10722;51.910;8.352;2024-01-11T02:33:48;73.10;;;35.97;;
21128;SDS011;10722;51.910;8.352;2024-01-11T02:36:34;80.80;;;36.17;;
21128;SDS011;10722;51.910;8.352;2024-01-11T02:39:19;80.33;;;36.93;;
21128;SDS011;10722;51.910;8.352;2024-01-11T02:42:06;77.93;;;37.17;;
21128;SDS011;10722;51.910;8.352;2024-01-11T02:44:51;86.80;;;37.83;;
21128;SDS011;10722;51.910;8.352;2024-01-11T02:47:36;74.00;;;36.70;;
21128;SDS011;10722;51.910;8.352;2024-01-11T02:50:21;80.67;;;37.73;;
21128;SDS011;10722;51.910;8.352;2024-01-11T02:53:06;80.20;;;37.43;;
21128;SDS011;10722;51.910;8.352;2024-01-11T02:55:51;81.57;;;36.43;;
21128;SDS011;10722;51.910;8.352;2024-01-11T02:58:36;81.77;;;36.83;;
21128;SDS011;10722;51.910;8.352;2024-01-11T03:01:21;78.30;;;36.57;;
21128;SDS011;10722;51.910;8.352;2024-01-11T03:04:06;76.13;;;36.53;;
21128;SDS011;10722;51.910;8.352;2024-01-11T03:06:52;82.63;;;36.87;;
21128;SDS011;10722;51.910;8.352;2024-01-11T03:09:37;79.73;;;36.67;;
21128;SDS011;10722;51.910;8.352;2024-01-11T03:12:22;81.17;;;38.93;;
21128;SDS011;10722;51.910;8.352;2024-01-11T03:15:07;91.10;;;40.27;;
21128;SDS011;10722;51.910;8.352;2024-01-11T03:17:52;84.07;;;39.83;;
21128;SDS011;10722;51.910;8.352;2024-01-11T03:20:38;81.10;;;37.47;;
21128;SDS011;10722;51.910;8.352;2024-01-11T03:23:23;94.13;;;40.83;;
21128;SDS011;10722;51.910;8.352;2024-01-11T03:26:15;83.57;;;39.57;;
21128;SDS011;10722;51.910;8.352;2024-01-11T03:29:01;86.63;;;39.93;;
21128;SDS011;10722;51.910;8.352;2024-01-11T03:31:46;83.90;;;38.93;;
21128;SDS011;10722;51.910;8.352;2024-01-11T03:34:31;81.93;;;38.40;;
21128;SDS011;10722;51.910;8.352;2024-01-11T03:37:16;85.47;;;41.67;;
21128;SDS011;10722;51.910;8.352;2024-01-11T03:40:05;87.23;;;40.73;;
21128;SDS011;10722;51.910;8.352;2024-01-11T03:42:50;89.73;;;37.87;;
21128;SDS011;10722;51.910;8.352;2024-01-11T03:45:35;89.33;;;39.13;;
21128;SDS011;10722;51.910;8.352;2024-01-11T03:48:20;84.67;;;38.23;;
21128;SDS011;10722;51.910;8.352;2024-01-11T03:51:06;84.70;;;40.53;;
21128;SDS011;10722;51.910;8.352;2024-01-11T03:53:51;80.77;;;38.03;;
21128;SDS011;10722;51.910;8.352;2024-01-11T03:56:39;84.33;;;37.90;;
21128;SDS011;10722;51.910;8.352;2024-01-11T03:59:24;84.70;;;38.60;;
21128;SDS011;10722;51.910;8.352;2024-01-11T04:02:10;82.70;;;37.53;;
21128;SDS011;10722;51.910;8.352;2024-01-11T04:04:55;89.10;;;40.03;;
21128;SDS011;10722;51.910;8.352;2024-01-11T04:07:41;83.60;;;38.00;;
21128;SDS011;10722;51.910;8.352;2024-01-11T04:10:26;88.73;;;39.33;;
21128;SDS011;10722;51.910;8.352;2024-01-11T04:13:11;76.67;;;37.50;;
21128;SDS011;10722;51.910;8.352;2024-01-11T04:15:56;83.13;;;37.83;;
21128;SDS011;10722;51.910;8.352;2024-01-11T04:18:40;79.23;;;37.97;;
21128;SDS011;10722;51.910;8.352;2024-01-11T04:21:26;85.97;;;38.00;;
21128;SDS011;10722;51.910;8.352;2024-01-11T04:24:12;85.10;;;38.30;;
21128;SDS011;10722;51.910;8.352;2024-01-11T04:26:57;82.50;;;36.97;;
21128;SDS011;10722;51.910;8.352;2024-01-11T04:29:42;84.97;;;38.47;;
21128;SDS011;10722;51.910;8.352;2024-01-11T04:32:27;88.77;;;38.40;;
21128;SDS011;10722;51.910;8.352;2024-01-11T04:35:12;80.83;;;37.10;;
21128;SDS011;10722;51.910;8.352;2024-01-11T04:37:58;79.63;;;35.97;;
21128;SDS011;10722;51.910;8.352;2024-01-11T04:40:42;79.47;;;38.50;;
21128;SDS011;10722;51.910;8.352;2024-01-11T04:43:27;84.53;;;37.97;;
21128;SDS011;10722;51.910;8.352;2024-01-11T04:46:13;83.53;;;38.53;;
21128;SDS011;10722;51.910;8.352;2024-01-11T04:49:01;83.00;;;35.60;;
21128;SDS011;10722;51.910;8.352;2024-01-11T04:51:47;88.43;;;39.03;;
21128;SDS011;10722;51.910;8.352;2024-01-11T04:54:32;86.50;;;38.70;;
21128;SDS011;10722;51.910;8.352;2024-01-11T04:57:17;87.87;;;38.93;;
21128;SDS011;10722;51.910;8.352;2024-01-11T05:00:02;83.50;;;37.10;;
21128;SDS011;10722;51.910;8.352;2024-01-11T05:02:48;80.70;;;37.90;;
21128;SDS011;10722;51.910;8.352;2024-01-11T05:05:33;84.63;;;38.83;;
21128;SDS011;10722;51.910;8.352;2024-01-11T05:08:18;90.30;;;37.10;;
21128;SDS011;10722;51.910;8.352;2024-01-11T05:11:03;85.50;;;38.67;;
21128;SDS011;10722;51.910;8.352;2024-01-11T05:13:48;90.80;;;38.23;;
21128;SDS011;10722;51.910;8.352;2024-01-11T05:16:34;87.23;;;39.07;;
21128;SDS011;10722;51.910;8.352;2024-01-11T05:19:19;79.80;;;38.23;;
21128;SDS011;10722;51.910;8.352;2024-01-11T05:22:04;90.57;;;38.90;;
21128;SDS011;10722;51.910;8.352;2024-01-11T05:24:49;82.50;;;37.40;;
21128;SDS011;10722;51.910;8.352;2024-01-11T05:27:34;79.33;;;37.80;;
21128;SDS011;10722;51.910;8.352;2024-01-11T05:30:20;86.33;;;37.43;;
21128;SDS011;10722;51.910;8.352;2024-01-11T05:33:05;78.00;;;37.13;;
21128;SDS011;10722;51.910;8.352;2024-01-11T05:35:51;83.37;;;37.70;;
21128;SDS011;10722;51.910;8.352;2024-01-11T05:38:35;81.03;;;36.93;;
21128;SDS011;10722;51.910;8.352;2024-01-11T05:41:20;79.53;;;37.67;;
21128;SDS011;10722;51.910;8.352;2024-01-11T05:44:05;85.30;;;38.73;;
21128;SDS011;10722;51.910;8.352;2024-01-11T05:46:51;82.13;;;38.60;;
21128;SDS011;10722;51.910;8.352;2024-01-11T05:49:36;86.40;;;39.60;;
21128;SDS011;10722;51.910;8.352;2024-01-11T05:52:21;82.87;;;38.63;;
21128;SDS011;10722;51.910;8.352;2024-01-11T05:55:06;80.23;;;37.90;;
21128;SDS011;10722;51.910;8.352;2024-01-11T05:57:51;85.97;;;37.67;;
21128;SDS011;10722;51.910;8.352;2024-01-11T06:00:36;88.40;;;37.30;;
21128;SDS011;10722;51.910;8.352;2024-01-11T06:03:21;90.17;;;37.63;;
21128;SDS011;10722;51.910;8.352;2024-01-11T06:06:06;83.47;;;38.77;;
21128;SDS011;10722;51.910;8.352;2024-01-11T06:08:52;79.80;;;37.17;;
21128;SDS011;10722;51.910;8.352;2024-01-11T06:11:37;89.17;;;39.57;;
21128;SDS011;10722;51.910;8.352;2024-01-11T06:14:22;84.20;;;39.63;;
21128;SDS011;10722;51.910;8.352;2024-01-11T06:17:07;86.47;;;39.93;;
21128;SDS011;10722;51.910;8.352;2024-01-11T06:19:52;83.37;;;37.93;;
21128;SDS011;10722;51.910;8.352;2024-01-11T06:22:37;85.80;;;37.77;;
21128;SDS011;10722;51.910;8.352;2024-01-11T06:25:22;77.57;;;36.67;;
21128;SDS011;10722;51.910;8.352;2024-01-11T06:28:07;85.60;;;38.80;;
21128;SDS011;10722;51.910;8.352;2024-01-11T06:30:53;88.90;;;39.83;;
21128;SDS011;10722;51.910;8.352;2024-01-11T06:33:39;84.07;;;39.93;;
21128;SDS011;10722;51.910;8.352;2024-01-11T06:36:24;82.10;;;38.23;;
21128;SDS011;10722;51.910;8.352;2024-01-11T06:39:09;88.60;;;38.30;;
21128;SDS011;10722;51.910;8.352;2024-01-11T06:41:54;83.40;;;39.63;;
21128;SDS011;10722;51.910;8.352;2024-01-11T06:44:39;78.00;;;37.60;;
21128;SDS011;10722;51.910;8.352;2024-01-11T06:47:24;87.33;;;38.70;;
21128;SDS011;10722;51.910;8.352;2024-01-11T06:50:11;87.50;;;38.20;;
21128;SDS011;10722;51.910;8.352;2024-01-11T06:52:57;81.27;;;37.50;;
21128;SDS011;10722;51.910;8.352;2024-01-11T06:55:42;86.33;;;39.00;;
21128;SDS011;10722;51.910;8.352;2024-01-11T06:58:27;89.00;;;43.80;;
21128;SDS011;10722;51.910;8.352;2024-01-11T07:01:12;84.07;;;37.93;;
21128;SDS011;10722;51.910;8.352;2024-01-11T07:03:57;86.27;;;39.87;;
21128;SDS011;10722;51.910;8.352;2024-01-11T07:06:42;79.83;;;37.90;;
21128;SDS011;10722;51.910;8.352;2024-01-11T07:09:27;85.43;;;38.53;;
21128;SDS011;10722;51.910;8.352;2024-01-11T07:12:13;81.67;;;38.23;;
21128;SDS011;10722;51.910;8.352;2024-01-11T07:14:58;79.03;;;39.00;;
21128;SDS011;10722;51.910;8.352;2024-01-11T07:17:43;89.43;;;40.43;;
21128;SDS011;10722;51.910;8.352;2024-01-11T07:20:28;81.57;;;39.60;;
21128;SDS011;10722;51.910;8.352;2024-01-11T07:23:14;82.90;;;39.37;;
21128;SDS011;10722;51.910;8.352;2024-01-11T07:25:59;84.77;;;39.20;;
21128;SDS011;10722;51.910;8.352;2024-01-11T07:28:44;88.87;;;40.63;;
21128;SDS011;10722;51.910;8.352;2024-01-11T07:31:29;84.07;;;39.57;;
21128;SDS011;10722;51.910;8.352;2024-01-11T07:34:14;82.63;;;39.33;;
21128;SDS011;10722;51.910;8.352;2024-01-11T07:37:00;81.50;;;39.40;;
21128;SDS011;10722;51.910;8.352;2024-01-11T07:39:45;85.53;;;39.83;;
21128;SDS011;10722;51.910;8.352;2024-01-11T07:42:29;82.47;;;39.07;;
21128;SDS011;10722;51.910;8.352;2024-01-11T07:45:14;88.23;;;40.03;;
21128;SDS011;10722;51.910;8.352;2024-01-11T07:47:59;92.70;;;42.70;;
21128;SDS011;10722;51.910;8.352;2024-01-11T07:50:44;99.43;;;41.93;;
21128;SDS011;10722;51.910;8.352;2024-01-11T07:53:30;96.00;;;43.83;;
21128;SDS011;10722;51.910;8.352;2024-01-11T07:56:15;98.67;;;44.30;;
21128;SDS011;10722;51.910;8.352;2024-01-11T07:59:00;85.07;;;41.23;;
21128;SDS011;10722;51.910;8.352;2024-01-11T08:01:46;93.03;;;41.67;;
21128;SDS011;10722;51.910;8.352;2024-01-11T08:04:31;84.10;;;39.83;;
21128;SDS011;10722;51.910;8.352;2024-01-11T08:07:16;84.30;;;40.53;;
21128;SDS011;10722;51.910;8.352;2024-01-11T08:10:02;87.20;;;41.13;;
21128;SDS011;10722;51.910;8.352;2024-01-11T08:12:47;89.20;;;40.37;;
21128;SDS011;10722;51.910;8.352;2024-01-11T08:15:32;86.90;;;40.77;;
21128;SDS011;10722;51.910;8.352;2024-01-11T08:18:20;86.50;;;41.07;;
21128;SDS011;10722;51.910;8.352;2024-01-11T08:21:05;86.00;;;40.90;;
21128;SDS011;10722;51.910;8.352;2024-01-11T08:23:50;92.93;;;40.30;;
21128;SDS011;10722;51.910;8.352;2024-01-11T08:26:36;90.17;;;41.60;;
21128;SDS011;10722;51.910;8.352;2024-01-11T08:29:21;93.03;;;40.13;;
21128;SDS011;10722;51.910;8.352;2024-01-11T08:32:06;89.73;;;39.53;;
21128;SDS011;10722;51.910;8.352;2024-01-11T08:35:08;95.67;;;42.10;;
21128;SDS011;10722;51.910;8.352;2024-01-11T08:37:54;89.47;;;40.90;;
21128;SDS011;10722;51.910;8.352;2024-01-11T08:40:39;92.03;;;41.23;;
21128;SDS011;10722;51.910;8.352;2024-01-11T08:43:24;86.10;;;39.90;;
21128;SDS011;10722;51.910;8.352;2024-01-11T08:46:13;89.03;;;40.80;;
21128;SDS011;10722;51.910;8.352;2024-01-11T08:49:08;92.30;;;41.60;;
21128;SDS011;10722;51.910;8.352;2024-01-11T08:51:53;88.50;;;40.73;;
21128;SDS011;10722;51.910;8.352;2024-01-11T08:54:38;85.33;;;40.77;;
21128;SDS011;10722;51.910;8.352;2024-01-11T08:57:23;86.53;;;41.07;;
21128;SDS011;10722;51.910;8.352;2024-01-11T09:00:10;85.73;;;40.27;;
21128;SDS011;10722;51.910;8.352;2024-01-11T09:02:55;91.27;;;42.47;;
21128;SDS011;10722;51.910;8.352;2024-01-11T09:05:40;85.97;;;40.90;;
21128;SDS011;10722;51.910;8.352;2024-01-11T09:08:26;83.00;;;40.53;;
21128;SDS011;10722;51.910;8.352;2024-01-11T09:11:11;78.77;;;39.37;;
21128;SDS011;10722;51.910;8.352;2024-01-11T09:13:56;77.03;;;38.57;;
21128;SDS011;10722;51.910;8.352;2024-01-11T09:16:41;77.73;;;38.33;;
21128;SDS011;10722;51.910;8.352;2024-01-11T09:19:26;77.13;;;36.43;;
21128;SDS011;10722;51.910;8.352;2024-01-11T09:22:11;77.80;;;37.17;;
21128;SDS011;10722;51.910;8.352;2024-01-11T09:24:56;77.37;;;36.57;;
21128;SDS011;10722;51.910;8.352;2024-01-11T09:27:40;76.27;;;37.10;;
21128;SDS011;10722;51.910;8.352;2024-01-11T09:30:25;77.03;;;35.73;;
21128;SDS011;10722;51.910;8.352;2024-01-11T09:33:11;78.10;;;36.53;;
21128;SDS011;10722;51.910;8.352;2024-01-11T09:35:56;81.50;;;36.40;;
21128;SDS011;10722;51.910;8.352;2024-01-11T09:38:41;76.93;;;35.67;;
21128;SDS011;10722;51.910;8.352;2024-01-11T09:41:26;73.47;;;34.40;;
21128;SDS011;10722;51.910;8.352;2024-01-11T09:44:11;75.03;;;35.57;;
21128;SDS011;10722;51.910;8.352;2024-01-11T09:46:57;68.53;;;34.50;;
21128;SDS011;10722;51.910;8.352;2024-01-11T09:49:44;69.67;;;33.20;;
21128;SDS011;10722;51.910;8.352;2024-01-11T09:52:32;70.93;;;34.73;;
21128;SDS011;10722;51.910;8.352;2024-01-11T09:55:20;72.33;;;34.20;;
21128;SDS011;10722;51.910;8.352;2024-01-11T09:58:05;70.57;;;33.83;;
21128;SDS011;10722;51.910;8.352;2024-01-11T10:00:55;69.03;;;33.23;;
21128;SDS011;10722;51.910;8.352;2024-01-11T10:03:41;69.80;;;33.43;;
21128;SDS011;10722;51.910;8.352;2024-01-11T10:06:26;67.90;;;32.67;;
21128;SDS011;10722;51.910;8.352;2024-01-11T10:09:12;71.17;;;34.80;;
21128;SDS011;10722;51.910;8.352;2024-01-11T10:11:57;67.17;;;33.53;;
21128;SDS011;10722;51.910;8.352;2024-01-11T10:14:42;63.00;;;31.93;;
21128;SDS011;10722;51.910;8.352;2024-01-11T10:17:27;67.80;;;33.57;;
21128;SDS011;10722;51.910;8.352;2024-01-11T10:20:13;65.57;;;33.47;;
21128;SDS011;10722;51.910;8.352;2024-01-11T10:22:59;64.60;;;32.23;;
21128;SDS011;10722;51.910;8.352;2024-01-11T10:25:44;79.73;;;39.70;;
21128;SDS011;10722;51.910;8.352;2024-01-11T10:28:29;68.03;;;35.00;;
21128;SDS011;10722;51.910;8.352;2024-01-11T10:31:14;63.70;;;32.90;;
21128;SDS011;10722;51.910;8.352;2024-01-11T10:33:59;66.57;;;33.47;;
21128;SDS011;10722;51.910;8.352;2024-01-11T10:36:44;71.07;;;33.50;;
21128;SDS011;10722;51.910;8.352;2024-01-11T10:39:29;63.07;;;32.30;;
21128;SDS011;10722;51.910;8.352;2024-01-11T10:42:16;65.60;;;33.63;;
21128;SDS011;10722;51.910;8.352;2024-01-11T10:45:04;59.17;;;31.63;;
21128;SDS011;10722;51.910;8.352;2024-01-11T10:48:01;65.23;;;32.37;;
21128;SDS011;10722;51.910;8.352;2024-01-11T10:50:49;61.90;;;31.20;;
21128;SDS011;10722;51.910;8.352;2024-01-11T10:53:43;66.53;;;32.93;;
21128;SDS011;10722;51.910;8.352;2024-01-11T10:56:32;66.00;;;32.57;;
21128;SDS011;10722;51.910;8.352;2024-01-11T10:59:19;61.93;;;33.07;;
21128;SDS011;10722;51.910;8.352;2024-01-11T11:02:06;65.20;;;32.93;;
21128;SDS011;10722;51.910;8.352;2024-01-11T11:04:52;64.37;;;33.00;;
21128;SDS011;10722;51.910;8.352;2024-01-11T11:07:39;69.57;;;33.63;;
21128;SDS011;10722;51.910;8.352;2024-01-11T11:10:25;62.90;;;33.10;;
21128;SDS011;10722;51.910;8.352;2024-01-11T11:13:12;59.57;;;31.93;;
21128;SDS011;10722;51.910;8.352;2024-01-11T11:15:59;58.93;;;31.47;;
21128;SDS011;10722;51.910;8.352;2024-01-11T11:18:46;61.03;;;31.93;;
21128;SDS011;10722;51.910;8.352;2024-01-11T11:21:32;55.40;;;29.90;;
21128;SDS011;10722;51.910;8.352;2024-01-11T11:24:17;54.07;;;29.23;;
21128;SDS011;10722;51.910;8.352;2024-01-11T11:27:02;58.57;;;29.67;;
21128;SDS011;10722;51.910;8.352;2024-01-11T11:29:47;56.30;;;29.07;;
21128;SDS011;10722;51.910;8.352;2024-01-11T11:32:37;54.17;;;28.40;;
21128;SDS011;10722;51.910;8.352;2024-01-11T11:35:26;55.90;;;28.97;;
21128;SDS011;10722;51.910;8.352;2024-01-11T11:38:18;56.13;;;28.50;;
21128;SDS011;10722;51.910;8.352;2024-01-11T11:41:05;45.07;;;23.33;;
21128;SDS011;10722;51.910;8.352;2024-01-11T11:43:51;47.67;;;24.47;;
21128;SDS011;10722;51.910;8.352;2024-01-11T11:46:36;47.00;;;23.83;;
21128;SDS011;10722;51.910;8.352;2024-01-11T11:49:33;44.87;;;23.27;;
21128;SDS011;10722;51.910;8.352;2024-01-11T11:53:02;41.47;;;19.10;;
21128;SDS011;10722;51.910;8.352;2024-01-11T11:55:47;42.33;;;20.33;;
21128;SDS011;10722;51.910;8.352;2024-01-11T11:58:34;42.33;;;19.37;;
21128;SDS011;10722;51.910;8.352;2024-01-11T12:01:19;39.17;;;17.83;;
21128;SDS011;10722;51.910;8.352;2024-01-11T12:04:05;35.60;;;15.40;;
21128;SDS011;10722;51.910;8.352;2024-01-11T12:06:53;34.50;;;16.00;;
21128;SDS011;10722;51.910;8.352;2024-01-11T12:09:39;36.37;;;15.90;;
21128;SDS011;10722;51.910;8.352;2024-01-11T12:12:24;34.80;;;16.50;;
21128;SDS011;10722;51.910;8.352;2024-01-11T12:15:09;35.67;;;17.40;;
21128;SDS011;10722;51.910;8.352;2024-01-11T12:17:58;36.60;;;18.27;;
21128;SDS011;10722;51.910;8.352;2024-01-11T12:20:43;37.03;;;17.00;;
21128;SDS011;10722;51.910;8.352;2024-01-11T12:23:29;40.50;;;17.50;;
21128;SDS011;10722;51.910;8.352;2024-01-11T12:26:14;38.90;;;17.27;;
21128;SDS011;10722;51.910;8.352;2024-01-11T12:29:00;43.27;;;19.90;;
21128;SDS011;10722;51.910;8.352;2024-01-11T12:31:45;59.97;;;30.60;;
21128;SDS011;10722;51.910;8.352;2024-01-11T12:34:30;39.87;;;18.20;;
21128;SDS011;10722;51.910;8.352;2024-01-11T12:37:16;34.90;;;16.67;;
21128;SDS011;10722;51.910;8.352;2024-01-11T12:40:00;36.43;;;17.33;;
21128;SDS011;10722;51.910;8.352;2024-01-11T12:42:45;38.67;;;17.50;;
21128;SDS011;10722;51.910;8.352;2024-01-11T12:45:37;38.90;;;17.97;;
21128;SDS011;10722;51.910;8.352;2024-01-11T12:48:23;36.87;;;17.23;;
21128;SDS011;10722;51.910;8.352;2024-01-11T12:51:08;40.00;;;17.83;;
21128;SDS011;10722;51.910;8.352;2024-01-11T12:54:04;36.20;;;16.80;;
21128;SDS011;10722;51.910;8.352;2024-01-11T12:56:56;32.07;;;14.93;;
21128;SDS011;10722;51.910;8.352;2024-01-11T12:59:41;37.57;;;16.47;;
21128;SDS011;10722;51.910;8.352;2024-01-11T13:02:26;43.03;;;17.03;;
21128;SDS011;10722;51.910;8.352;2024-01-11T13:05:12;42.37;;;17.23;;
21128;SDS011;10722;51.910;8.352;2024-01-11T13:07:57;40.17;;;17.60;;
21128;SDS011;10722;51.910;8.352;2024-01-11T13:10:42;39.63;;;17.40;;
21128;SDS011;10722;51.910;8.352;2024-01-11T13:13:27;40.23;;;17.83;;
21128;SDS011;10722;51.910;8.352;2024-01-11T13:16:12;40.20;;;16.30;;
21128;SDS011;10722;51.910;8.352;2024-01-11T13:18:57;38.17;;;16.00;;
21128;SDS011;10722;51.910;8.352;2024-01-11T13:21:43;44.00;;;17.53;;
21128;SDS011;10722;51.910;8.352;2024-01-11T13:24:28;44.53;;;17.03;;
21128;SDS011;10722;51.910;8.352;2024-01-11T13:27:13;40.47;;;15.97;;
21128;SDS011;10722;51.910;8.352;2024-01-11T13:29:58;41.17;;;17.83;;
21128;SDS011;10722;51.910;8.352;2024-01-11T13:32:43;45.10;;;17.73;;
21128;SDS011;10722;51.910;8.352;2024-01-11T13:35:28;39.73;;;16.70;;
21128;SDS011;10722;51.910;8.352;2024-01-11T13:38:13;41.13;;;17.90;;
21128;SDS011;10722;51.910;8.352;2024-01-11T13:40:58;42.90;;;18.43;;
21128;SDS011;10722;51.910;8.352;2024-01-11T13:43:43;40.83;;;18.27;;
21128;SDS011;10722;51.910;8.352;2024-01-11T13:46:28;41.80;;;18.03;;
21128;SDS011;10722;51.910;8.352;2024-01-11T13:49:13;44.57;;;18.27;;
21128;SDS011;10722;51.910;8.352;2024-01-11T13:51:59;45.63;;;18.13;;
21128;SDS011;10722;51.910;8.352;2024-01-11T13:54:46;42.50;;;18.07;;
21128;SDS011;10722;51.910;8.352;2024-01-11T13:57:30;42.63;;;17.60;;
21128;SDS011;10722;51.910;8.352;2024-01-11T14:00:16;41.23;;;17.87;;
21128;SDS011;10722;51.910;8.352;2024-01-11T14:03:01;44.33;;;17.53;;
21128;SDS011;10722;51.910;8.352;2024-01-11T14:05:47;42.73;;;17.20;;
21128;SDS011;10722;51.910;8.352;2024-01-11T14:08:32;45.63;;;18.03;;
21128;SDS011;10722;51.910;8.352;2024-01-11T14:11:17;49.07;;;19.17;;
21128;SDS011;10722;51.910;8.352;2024-01-11T14:14:03;53.63;;;21.43;;
21128;SDS011;10722;51.910;8.352;2024-01-11T14:16:48;52.40;;;21.23;;
21128;SDS011;10722;51.910;8.352;2024-01-11T14:19:34;50.90;;;20.57;;
21128;SDS011;10722;51.910;8.352;2024-01-11T14:22:19;46.37;;;20.83;;
21128;SDS011;10722;51.910;8.352;2024-01-11T14:25:05;46.83;;;21.23;;
21128;SDS011;10722;51.910;8.352;2024-01-11T14:27:50;49.83;;;20.53;;
21128;SDS011;10722;51.910;8.352;2024-01-11T14:30:35;49.33;;;22.13;;
21128;SDS011;10722;51.910;8.352;2024-01-11T14:33:20;49.67;;;22.50;;
21128;SDS011;10722;51.910;8.352;2024-01-11T14:36:06;49.50;;;21.87;;
21128;SDS011;10722;51.910;8.352;2024-01-11T14:38:51;53.23;;;24.17;;
21128;SDS011;10722;51.910;8.352;2024-01-11T14:41:36;46.70;;;22.80;;
21128;SDS011;10722;51.910;8.352;2024-01-11T14:44:21;49.17;;;22.20;;
21128;SDS011;10722;51.910;8.352;2024-01-11T14:47:06;52.17;;;23.33;;
21128;SDS011;10722;51.910;8.352;2024-01-11T14:49:51;49.10;;;22.00;;
21128;SDS011;10722;51.910;8.352;2024-01-11T14:52:36;52.73;;;22.60;;
21128;SDS011;10722;51.910;8.352;2024-01-11T14:55:21;48.30;;;21.77;;
21128;SDS011;10722;51.910;8.352;2024-01-11T14:58:06;48.93;;;21.73;;
21128;SDS011;10722;51.910;8.352;2024-01-11T15:00:51;52.00;;;21.67;;
21128;SDS011;10722;51.910;8.352;2024-01-11T15:03:36;46.93;;;21.27;;
21128;SDS011;10722;51.910;8.352;2024-01-11T15:06:21;50.00;;;21.70;;
21128;SDS011;10722;51.910;8.352;2024-01-11T15:09:07;45.60;;;20.83;;
21128;SDS011;10722;51.910;8.352;2024-01-11T15:11:52;53.03;;;22.60;;
21128;SDS011;10722;51.910;8.352;2024-01-11T15:14:38;54.20;;;24.37;;
21128;SDS011;10722;51.910;8.352;2024-01-11T15:17:23;89.57;;;40.03;;
21128;SDS011;10722;51.910;8.352;2024-01-11T15:20:08;51.13;;;24.17;;
21128;SDS011;10722;51.910;8.352;2024-01-11T15:22:53;48.97;;;22.67;;
21128;SDS011;10722;51.910;8.352;2024-01-11T15:25:38;55.63;;;23.83;;
21128;SDS011;10722;51.910;8.352;2024-01-11T15:28:23;56.33;;;24.47;;
21128;SDS011;10722;51.910;8.352;2024-01-11T15:31:08;52.47;;;22.97;;
21128;SDS011;10722;51.910;8.352;2024-01-11T15:33:53;56.40;;;23.63;;
21128;SDS011;10722;51.910;8.352;2024-01-11T15:36:38;53.40;;;22.80;;
21128;SDS011;10722;51.910;8.352;2024-01-11T15:39:24;51.30;;;24.17;;
21128;SDS011;10722;51.910;8.352;2024-01-11T15:42:14;55.73;;;23.37;;
21128;SDS011;10722;51.910;8.352;2024-01-11T15:44:58;57.27;;;24.60;;
21128;SDS011;10722;51.910;8.352;2024-01-11T15:47:44;54.90;;;24.67;;
21128;SDS011;10722;51.910;8.352;2024-01-11T15:50:29;58.07;;;26.13;;
21128;SDS011;10722;51.910;8.352;2024-01-11T15:53:14;67.03;;;27.70;;
21128;SDS011;10722;51.910;8.352;2024-01-11T15:55:59;66.90;;;27.10;;
21128;SDS011;10722;51.910;8.352;2024-01-11T15:58:44;64.40;;;27.93;;
21128;SDS011;10722;51.910;8.352;2024-01-11T16:01:29;65.93;;;29.10;;
21128;SDS011;10722;51.910;8.352;2024-01-11T16:04:14;64.50;;;27.40;;
21128;SDS011;10722;51.910;8.352;2024-01-11T16:06:59;71.87;;;28.73;;
21128;SDS011;10722;51.910;8.352;2024-01-11T16:09:44;63.07;;;27.93;;